Terminal Aerodrome Forecast
Issued by NWS

Home | Current Version | Previous Version | Text Only | Print | Product List | Glossary On
Versions: 1 2 3 4 5 6 7 8 9 10 11 12 13 14 15 16 17 18 19 20
000
FTUS43 KLSX 160540
TAFSUS
TAF
KSUS 160540Z 1606/1706 11005KT 1/2SM FG OVC002
     FM161500 12008KT 1/2SM -RA FG OVC003
     FM161800 13010KT 2SM -RA BR OVC005
     FM162100 14010KT 4SM -RA BR OVC008
     FM170300 18008KT 5SM -RA BR OVC012=

USA.gov is the U.S. government's official web portal to all federal, state and local government web resources and services.